sensor_id;sensor_type;location;lat;lon;timestamp;temperature;humidity
43858;DHT22;29507;51.284;5.758;2022-10-31T00:00:58;12.40;99.90
43858;DHT22;29507;51.284;5.758;2022-10-31T00:03:24;12.30;99.90
43858;DHT22;29507;51.284;5.758;2022-10-31T00:05:50;12.30;99.90
43858;DHT22;29507;51.284;5.758;2022-10-31T00:08:16;12.20;99.90
43858;DHT22;29507;51.284;5.758;2022-10-31T00:10:43;12.20;99.90
43858;DHT22;29507;51.284;5.758;2022-10-31T00:13:11;12.30;99.90
43858;DHT22;29507;51.284;5.758;2022-10-31T00:15:38;12.30;99.90
43858;DHT22;29507;51.284;5.758;2022-10-31T00:18:06;12.30;99.90
43858;DHT22;29507;51.284;5.758;2022-10-31T00:20:33;12.30;99.90
43858;DHT22;29507;51.284;5.758;2022-10-31T00:22:59;12.30;99.90
43858;DHT22;29507;51.284;5.758;2022-10-31T00:25:26;12.30;99.90
43858;DHT22;29507;51.284;5.758;2022-10-31T00:27:52;12.30;99.90
43858;DHT22;29507;51.284;5.758;2022-10-31T00:30:18;12.30;99.90
43858;DHT22;29507;51.284;5.758;2022-10-31T00:32:43;12.30;99.90
43858;DHT22;29507;51.284;5.758;2022-10-31T00:35:09;12.40;99.90
43858;DHT22;29507;51.284;5.758;2022-10-31T00:37:34;12.40;99.90
43858;DHT22;29507;51.284;5.758;2022-10-31T00:40:00;12.30;99.90
43858;DHT22;29507;51.284;5.758;2022-10-31T00:42:25;12.30;99.90
43858;DHT22;29507;51.284;5.758;2022-10-31T00:44:51;12.30;99.90
43858;DHT22;29507;51.284;5.758;2022-10-31T00:47:16;12.30;99.90
43858;DHT22;29507;51.284;5.758;2022-10-31T00:49:42;12.20;99.90
43858;DHT22;29507;51.284;5.758;2022-10-31T00:52:08;12.20;99.90
43858;DHT22;29507;51.284;5.758;2022-10-31T00:54:33;12.20;99.90
43858;DHT22;29507;51.284;5.758;2022-10-31T00:56:59;12.20;99.90
43858;DHT22;29507;51.284;5.758;2022-10-31T00:59:24;12.20;99.90
43858;DHT22;29507;51.284;5.758;2022-10-31T01:01:50;12.10;99.90
43858;DHT22;29507;51.284;5.758;2022-10-31T01:04:16;12.10;99.90
43858;DHT22;29507;51.284;5.758;2022-10-31T01:06:41;12.20;99.90
43858;DHT22;29507;51.284;5.758;2022-10-31T01:09:07;12.20;99.90
43858;DHT22;29507;51.284;5.758;2022-10-31T01:11:33;12.10;99.90
43858;DHT22;29507;51.284;5.758;2022-10-31T01:13:59;12.10;99.90
43858;DHT22;29507;51.284;5.758;2022-10-31T01:16:26;12.10;99.90
43858;DHT22;29507;51.284;5.758;2022-10-31T01:18:52;12.00;99.90
43858;DHT22;29507;51.284;5.758;2022-10-31T01:21:22;12.10;99.90
43858;DHT22;29507;51.284;5.758;2022-10-31T01:23:47;12.10;99.90
43858;DHT22;29507;51.284;5.758;2022-10-31T01:26:14;12.10;99.90
43858;DHT22;29507;51.284;5.758;2022-10-31T01:28:49;12.10;99.90
43858;DHT22;29507;51.284;5.758;2022-10-31T01:31:17;12.20;99.90
43858;DHT22;29507;51.284;5.758;2022-10-31T01:33:43;12.10;99.90
43858;DHT22;29507;51.284;5.758;2022-10-31T01:36:18;12.10;99.90
43858;DHT22;29507;51.284;5.758;2022-10-31T01:38:45;12.10;99.90
43858;DHT22;29507;51.284;5.758;2022-10-31T01:41:13;12.10;99.90
43858;DHT22;29507;51.284;5.758;2022-10-31T01:46:08;12.10;99.90
43858;DHT22;29507;51.284;5.758;2022-10-31T01:48:33;12.00;99.90
43858;DHT22;29507;51.284;5.758;2022-10-31T01:50:59;12.00;99.90
43858;DHT22;29507;51.284;5.758;2022-10-31T01:53:25;11.90;99.90
43858;DHT22;29507;51.284;5.758;2022-10-31T01:55:51;11.90;99.90
43858;DHT22;29507;51.284;5.758;2022-10-31T01:58:21;12.00;99.90
43858;DHT22;29507;51.284;5.758;2022-10-31T02:00:51;12.00;99.90
43858;DHT22;29507;51.284;5.758;2022-10-31T02:03:20;11.90;99.90
43858;DHT22;29507;51.284;5.758;2022-10-31T02:05:47;11.80;99.90
43858;DHT22;29507;51.284;5.758;2022-10-31T02:08:23;11.90;99.90
43858;DHT22;29507;51.284;5.758;2022-10-31T02:10:51;11.90;99.90
43858;DHT22;29507;51.284;5.758;2022-10-31T02:13:18;11.90;99.90
43858;DHT22;29507;51.284;5.758;2022-10-31T02:15:47;11.80;99.90
43858;DHT22;29507;51.284;5.758;2022-10-31T02:18:14;11.70;99.90
43858;DHT22;29507;51.284;5.758;2022-10-31T02:21:00;11.60;99.90
43858;DHT22;29507;51.284;5.758;2022-10-31T02:29:25;11.40;99.90
43858;DHT22;29507;51.284;5.758;2022-10-31T02:34:45;11.30;99.90
43858;DHT22;29507;51.284;5.758;2022-10-31T02:40:04;11.20;99.90
43858;DHT22;29507;51.284;5.758;2022-10-31T02:45:31;11.10;99.90
43858;DHT22;29507;51.284;5.758;2022-10-31T02:48:07;11.00;99.90
43858;DHT22;29507;51.284;5.758;2022-10-31T02:50:35;11.00;99.90
43858;DHT22;29507;51.284;5.758;2022-10-31T02:53:03;11.00;99.90
43858;DHT22;29507;51.284;5.758;2022-10-31T03:00:33;11.00;99.90
43858;DHT22;29507;51.284;5.758;2022-10-31T03:03:16;11.00;99.90
43858;DHT22;29507;51.284;5.758;2022-10-31T03:08:33;11.00;99.90
43858;DHT22;29507;51.284;5.758;2022-10-31T03:11:05;11.00;99.90
43858;DHT22;29507;51.284;5.758;2022-10-31T03:16:26;11.10;99.90
43858;DHT22;29507;51.284;5.758;2022-10-31T03:18:58;11.20;99.90
43858;DHT22;29507;51.284;5.758;2022-10-31T03:21:27;11.20;99.90
43858;DHT22;29507;51.284;5.758;2022-10-31T03:23:55;11.20;99.90
43858;DHT22;29507;51.284;5.758;2022-10-31T03:26:23;11.20;99.90
43858;DHT22;29507;51.284;5.758;2022-10-31T03:28:53;11.20;99.90
43858;DHT22;29507;51.284;5.758;2022-10-31T03:31:22;11.20;99.90
43858;DHT22;29507;51.284;5.758;2022-10-31T03:33:49;11.20;99.90
43858;DHT22;29507;51.284;5.758;2022-10-31T03:36:17;11.20;99.90
43858;DHT22;29507;51.284;5.758;2022-10-31T03:38:45;11.20;99.90
43858;DHT22;29507;51.284;5.758;2022-10-31T03:41:16;11.10;99.90
43858;DHT22;29507;51.284;5.758;2022-10-31T03:43:49;11.10;99.90
43858;DHT22;29507;51.284;5.758;2022-10-31T03:46:17;11.10;99.90
43858;DHT22;29507;51.284;5.758;2022-10-31T03:48:43;11.10;99.90
43858;DHT22;29507;51.284;5.758;2022-10-31T03:53:53;11.00;99.90
43858;DHT22;29507;51.284;5.758;2022-10-31T03:56:36;11.00;99.90
43858;DHT22;29507;51.284;5.758;2022-10-31T03:59:28;10.90;99.90
43858;DHT22;29507;51.284;5.758;2022-10-31T04:01:52;11.00;99.90
43858;DHT22;29507;51.284;5.758;2022-10-31T04:04:20;10.90;99.90
43858;DHT22;29507;51.284;5.758;2022-10-31T04:06:47;10.80;99.90
43858;DHT22;29507;51.284;5.758;2022-10-31T04:09:14;10.70;99.90
43858;DHT22;29507;51.284;5.758;2022-10-31T04:11:50;10.70;99.90
43858;DHT22;29507;51.284;5.758;2022-10-31T04:14:16;10.60;99.90
43858;DHT22;29507;51.284;5.758;2022-10-31T04:16:43;10.50;99.90
43858;DHT22;29507;51.284;5.758;2022-10-31T04:19:10;10.50;99.90
43858;DHT22;29507;51.284;5.758;2022-10-31T04:21:37;10.60;99.90
43858;DHT22;29507;51.284;5.758;2022-10-31T04:24:03;10.60;99.90
43858;DHT22;29507;51.284;5.758;2022-10-31T04:26:28;10.60;99.90
43858;DHT22;29507;51.284;5.758;2022-10-31T04:28:54;10.60;99.90
43858;DHT22;29507;51.284;5.758;2022-10-31T04:31:20;10.60;99.90
43858;DHT22;29507;51.284;5.758;2022-10-31T04:33:51;10.60;99.90
43858;DHT22;29507;51.284;5.758;2022-10-31T04:36:17;10.60;99.90
43858;DHT22;29507;51.284;5.758;2022-10-31T04:38:50;10.60;99.90
43858;DHT22;29507;51.284;5.758;2022-10-31T04:41:16;10.60;99.90
43858;DHT22;29507;51.284;5.758;2022-10-31T04:43:42;10.60;99.90
43858;DHT22;29507;51.284;5.758;2022-10-31T04:46:08;10.60;99.90
43858;DHT22;29507;51.284;5.758;2022-10-31T04:48:34;10.50;99.90
43858;DHT22;29507;51.284;5.758;2022-10-31T04:51:00;10.30;99.90
43858;DHT22;29507;51.284;5.758;2022-10-31T04:53:27;10.20;99.90
43858;DHT22;29507;51.284;5.758;2022-10-31T04:55:52;10.20;99.90
43858;DHT22;29507;51.284;5.758;2022-10-31T04:58:18;10.20;99.90
43858;DHT22;29507;51.284;5.758;2022-10-31T05:00:43;10.20;99.90
43858;DHT22;29507;51.284;5.758;2022-10-31T05:03:09;10.30;99.90
43858;DHT22;29507;51.284;5.758;2022-10-31T05:05:35;10.30;99.90
43858;DHT22;29507;51.284;5.758;2022-10-31T05:08:01;10.20;99.90
43858;DHT22;29507;51.284;5.758;2022-10-31T05:10:28;10.20;99.90
43858;DHT22;29507;51.284;5.758;2022-10-31T05:12:59;10.10;99.90
43858;DHT22;29507;51.284;5.758;2022-10-31T05:15:26;10.10;99.90
43858;DHT22;29507;51.284;5.758;2022-10-31T05:17:53;10.20;99.90
43858;DHT22;29507;51.284;5.758;2022-10-31T05:20:20;10.10;99.90
43858;DHT22;29507;51.284;5.758;2022-10-31T05:22:48;10.10;99.90
43858;DHT22;29507;51.284;5.758;2022-10-31T05:25:14;10.00;99.90
43858;DHT22;29507;51.284;5.758;2022-10-31T05:27:42;10.00;99.90
43858;DHT22;29507;51.284;5.758;2022-10-31T05:30:08;10.00;99.90
43858;DHT22;29507;51.284;5.758;2022-10-31T05:32:39;10.00;99.90
43858;DHT22;29507;51.284;5.758;2022-10-31T05:35:06;10.00;99.90
43858;DHT22;29507;51.284;5.758;2022-10-31T05:37:34;10.00;99.90
43858;DHT22;29507;51.284;5.758;2022-10-31T05:39:59;10.00;99.90
43858;DHT22;29507;51.284;5.758;2022-10-31T05:42:25;10.10;99.90
43858;DHT22;29507;51.284;5.758;2022-10-31T05:44:51;10.00;99.90
43858;DHT22;29507;51.284;5.758;2022-10-31T05:47:17;10.00;99.90
43858;DHT22;29507;51.284;5.758;2022-10-31T05:49:42;9.90;99.90
43858;DHT22;29507;51.284;5.758;2022-10-31T05:52:08;9.80;99.90
43858;DHT22;29507;51.284;5.758;2022-10-31T05:54:33;9.70;99.90
43858;DHT22;29507;51.284;5.758;2022-10-31T05:56:59;9.70;99.90
43858;DHT22;29507;51.284;5.758;2022-10-31T05:59:24;9.70;99.90
43858;DHT22;29507;51.284;5.758;2022-10-31T06:01:50;9.80;99.90
43858;DHT22;29507;51.284;5.758;2022-10-31T06:04:16;9.80;99.90
43858;DHT22;29507;51.284;5.758;2022-10-31T06:06:41;9.90;99.90
43858;DHT22;29507;51.284;5.758;2022-10-31T06:09:07;9.80;99.90
43858;DHT22;29507;51.284;5.758;2022-10-31T06:11:32;9.70;99.90
43858;DHT22;29507;51.284;5.758;2022-10-31T06:13:58;9.70;99.90
43858;DHT22;29507;51.284;5.758;2022-10-31T06:16:24;9.70;99.90
43858;DHT22;29507;51.284;5.758;2022-10-31T06:18:49;9.80;99.90
43858;DHT22;29507;51.284;5.758;2022-10-31T06:21:15;9.80;99.90
43858;DHT22;29507;51.284;5.758;2022-10-31T06:23:41;9.80;99.90
43858;DHT22;29507;51.284;5.758;2022-10-31T06:26:06;9.90;99.90
43858;DHT22;29507;51.284;5.758;2022-10-31T06:28:32;9.90;99.90
43858;DHT22;29507;51.284;5.758;2022-10-31T06:30:57;10.00;99.90
43858;DHT22;29507;51.284;5.758;2022-10-31T06:33:23;10.00;99.90
43858;DHT22;29507;51.284;5.758;2022-10-31T06:35:49;10.00;99.90
43858;DHT22;29507;51.284;5.758;2022-10-31T06:38:15;10.00;99.90
43858;DHT22;29507;51.284;5.758;2022-10-31T06:40:40;9.90;99.90
43858;DHT22;29507;51.284;5.758;2022-10-31T06:43:06;9.90;99.90
43858;DHT22;29507;51.284;5.758;2022-10-31T06:45:31;9.90;99.90
43858;DHT22;29507;51.284;5.758;2022-10-31T06:47:57;9.90;99.90
43858;DHT22;29507;51.284;5.758;2022-10-31T06:50:23;9.90;99.90
43858;DHT22;29507;51.284;5.758;2022-10-31T06:52:57;9.90;99.90
43858;DHT22;29507;51.284;5.758;2022-10-31T06:55:24;9.90;99.90
43858;DHT22;29507;51.284;5.758;2022-10-31T06:57:51;9.90;99.90
43858;DHT22;29507;51.284;5.758;2022-10-31T07:00:17;9.80;99.90
43858;DHT22;29507;51.284;5.758;2022-10-31T07:02:43;9.90;99.90
43858;DHT22;29507;51.284;5.758;2022-10-31T07:05:08;10.00;99.90
43858;DHT22;29507;51.284;5.758;2022-10-31T07:07:34;10.10;99.90
43858;DHT22;29507;51.284;5.758;2022-10-31T07:10:00;10.10;99.90
43858;DHT22;29507;51.284;5.758;2022-10-31T07:12:25;10.10;99.90
43858;DHT22;29507;51.284;5.758;2022-10-31T07:14:51;10.20;99.90
43858;DHT22;29507;51.284;5.758;2022-10-31T07:17:17;10.30;99.90
43858;DHT22;29507;51.284;5.758;2022-10-31T07:19:42;10.30;99.90
43858;DHT22;29507;51.284;5.758;2022-10-31T07:22:08;10.30;99.90
43858;DHT22;29507;51.284;5.758;2022-10-31T07:24:34;10.40;99.90
43858;DHT22;29507;51.284;5.758;2022-10-31T07:26:59;10.40;99.90
43858;DHT22;29507;51.284;5.758;2022-10-31T07:29:25;10.40;99.90
43858;DHT22;29507;51.284;5.758;2022-10-31T07:31:51;10.50;99.90
43858;DHT22;29507;51.284;5.758;2022-10-31T07:34:16;10.60;99.90
43858;DHT22;29507;51.284;5.758;2022-10-31T07:36:42;10.60;99.90
43858;DHT22;29507;51.284;5.758;2022-10-31T07:39:08;10.70;99.90
43858;DHT22;29507;51.284;5.758;2022-10-31T07:41:34;10.80;99.90
43858;DHT22;29507;51.284;5.758;2022-10-31T07:44:00;10.80;99.90
43858;DHT22;29507;51.284;5.758;2022-10-31T07:46:25;10.90;99.90
43858;DHT22;29507;51.284;5.758;2022-10-31T07:48:51;11.00;99.90
43858;DHT22;29507;51.284;5.758;2022-10-31T07:51:17;11.10;99.90
43858;DHT22;29507;51.284;5.758;2022-10-31T07:53:42;11.20;99.90
43858;DHT22;29507;51.284;5.758;2022-10-31T07:56:08;11.20;99.90
43858;DHT22;29507;51.284;5.758;2022-10-31T07:58:34;11.30;99.90
43858;DHT22;29507;51.284;5.758;2022-10-31T08:00:59;11.40;99.90
43858;DHT22;29507;51.284;5.758;2022-10-31T08:03:25;11.50;99.90
43858;DHT22;29507;51.284;5.758;2022-10-31T08:05:51;11.60;99.90
43858;DHT22;29507;51.284;5.758;2022-10-31T08:08:17;11.60;99.90
43858;DHT22;29507;51.284;5.758;2022-10-31T08:10:42;11.60;99.90
43858;DHT22;29507;51.284;5.758;2022-10-31T08:13:10;11.70;99.90
43858;DHT22;29507;51.284;5.758;2022-10-31T08:15:36;11.80;99.90
43858;DHT22;29507;51.284;5.758;2022-10-31T08:18:14;11.80;99.90
43858;DHT22;29507;51.284;5.758;2022-10-31T08:20:41;11.90;99.90
43858;DHT22;29507;51.284;5.758;2022-10-31T08:23:09;11.90;99.90
43858;DHT22;29507;51.284;5.758;2022-10-31T08:25:38;11.90;99.90
43858;DHT22;29507;51.284;5.758;2022-10-31T08:28:04;12.00;99.90
43858;DHT22;29507;51.284;5.758;2022-10-31T08:30:32;12.00;99.90
43858;DHT22;29507;51.284;5.758;2022-10-31T08:35:27;12.10;99.90
43858;DHT22;29507;51.284;5.758;2022-10-31T08:37:54;12.10;99.90
43858;DHT22;29507;51.284;5.758;2022-10-31T08:40:20;12.10;99.90
43858;DHT22;29507;51.284;5.758;2022-10-31T08:42:46;12.20;99.90
43858;DHT22;29507;51.284;5.758;2022-10-31T08:45:12;12.30;99.90
43858;DHT22;29507;51.284;5.758;2022-10-31T08:47:37;12.40;99.90
43858;DHT22;29507;51.284;5.758;2022-10-31T08:50:03;12.50;99.90
43858;DHT22;29507;51.284;5.758;2022-10-31T08:52:29;12.70;99.90
43858;DHT22;29507;51.284;5.758;2022-10-31T08:54:55;12.70;99.90
43858;DHT22;29507;51.284;5.758;2022-10-31T08:57:20;12.90;99.90
43858;DHT22;29507;51.284;5.758;2022-10-31T08:59:46;13.10;99.90
43858;DHT22;29507;51.284;5.758;2022-10-31T09:02:12;13.30;99.90
43858;DHT22;29507;51.284;5.758;2022-10-31T09:04:38;13.60;99.90
43858;DHT22;29507;51.284;5.758;2022-10-31T09:07:03;13.70;99.90
43858;DHT22;29507;51.284;5.758;2022-10-31T09:09:29;13.70;99.90
43858;DHT22;29507;51.284;5.758;2022-10-31T09:11:55;13.80;99.90
43858;DHT22;29507;51.284;5.758;2022-10-31T09:14:20;14.00;99.90
43858;DHT22;29507;51.284;5.758;2022-10-31T09:16:46;14.10;99.90
43858;DHT22;29507;51.284;5.758;2022-10-31T09:19:11;14.30;99.90
43858;DHT22;29507;51.284;5.758;2022-10-31T09:21:37;14.50;99.90
43858;DHT22;29507;51.284;5.758;2022-10-31T09:24:03;14.70;99.90
43858;DHT22;29507;51.284;5.758;2022-10-31T09:26:29;14.90;99.90
43858;DHT22;29507;51.284;5.758;2022-10-31T09:28:55;14.90;99.90
43858;DHT22;29507;51.284;5.758;2022-10-31T09:31:23;15.00;99.90
43858;DHT22;29507;51.284;5.758;2022-10-31T09:33:48;15.20;99.90
43858;DHT22;29507;51.284;5.758;2022-10-31T09:36:14;15.50;99.90
43858;DHT22;29507;51.284;5.758;2022-10-31T09:38:39;15.60;99.90
43858;DHT22;29507;51.284;5.758;2022-10-31T09:52:35;16.30;99.90
43858;DHT22;29507;51.284;5.758;2022-10-31T09:55:12;16.30;99.90
43858;DHT22;29507;51.284;5.758;2022-10-31T09:57:40;16.30;99.90
43858;DHT22;29507;51.284;5.758;2022-10-31T10:00:09;16.40;99.90
43858;DHT22;29507;51.284;5.758;2022-10-31T10:02:53;16.50;99.90
43858;DHT22;29507;51.284;5.758;2022-10-31T10:05:32;16.60;99.90
43858;DHT22;29507;51.284;5.758;2022-10-31T10:14:10;17.10;99.90
43858;DHT22;29507;51.284;5.758;2022-10-31T10:19:42;17.30;99.90
43858;DHT22;29507;51.284;5.758;2022-10-31T10:25:16;17.20;99.90
43858;DHT22;29507;51.284;5.758;2022-10-31T10:31:01;17.10;99.90
43858;DHT22;29507;51.284;5.758;2022-10-31T10:33:47;17.10;99.90
43858;DHT22;29507;51.284;5.758;2022-10-31T10:36:24;17.10;99.90
43858;DHT22;29507;51.284;5.758;2022-10-31T10:39:02;17.20;99.90
43858;DHT22;29507;51.284;5.758;2022-10-31T10:41:32;17.40;99.90
43858;DHT22;29507;51.284;5.758;2022-10-31T10:43:58;17.70;99.90
43858;DHT22;29507;51.284;5.758;2022-10-31T10:58:00;18.30;99.90
43858;DHT22;29507;51.284;5.758;2022-10-31T11:00:40;18.20;99.90
43858;DHT22;29507;51.284;5.758;2022-10-31T11:03:06;18.20;99.90
43858;DHT22;29507;51.284;5.758;2022-10-31T11:05:50;18.20;99.90
43858;DHT22;29507;51.284;5.758;2022-10-31T11:08:29;18.20;99.90
43858;DHT22;29507;51.284;5.758;2022-10-31T11:11:18;18.10;99.90
43858;DHT22;29507;51.284;5.758;2022-10-31T11:13:49;18.10;99.90
43858;DHT22;29507;51.284;5.758;2022-10-31T11:16:37;18.00;99.90
43858;DHT22;29507;51.284;5.758;2022-10-31T11:21:40;18.00;99.90
43858;DHT22;29507;51.284;5.758;2022-10-31T11:26:35;18.10;99.90
43858;DHT22;29507;51.284;5.758;2022-10-31T11:29:03;18.10;99.90
43858;DHT22;29507;51.284;5.758;2022-10-31T11:31:32;18.20;99.90
43858;DHT22;29507;51.284;5.758;2022-10-31T11:34:01;18.20;99.90
43858;DHT22;29507;51.284;5.758;2022-10-31T11:36:30;18.20;99.90
43858;DHT22;29507;51.284;5.758;2022-10-31T11:38:57;18.30;99.90
43858;DHT22;29507;51.284;5.758;2022-10-31T11:41:32;18.20;99.90
43858;DHT22;29507;51.284;5.758;2022-10-31T11:44:03;18.20;99.90
43858;DHT22;29507;51.284;5.758;2022-10-31T11:46:38;18.20;99.90
43858;DHT22;29507;51.284;5.758;2022-10-31T11:49:06;18.20;99.90
43858;DHT22;29507;51.284;5.758;2022-10-31T11:51:37;18.30;99.90
43858;DHT22;29507;51.284;5.758;2022-10-31T11:54:06;18.40;99.90
43858;DHT22;29507;51.284;5.758;2022-10-31T11:56:44;18.50;99.90
43858;DHT22;29507;51.284;5.758;2022-10-31T12:01:52;18.40;99.90
43858;DHT22;29507;51.284;5.758;2022-10-31T12:07:01;18.50;99.90
43858;DHT22;29507;51.284;5.758;2022-10-31T12:09:29;18.50;99.90
43858;DHT22;29507;51.284;5.758;2022-10-31T12:15:25;18.40;99.90
43858;DHT22;29507;51.284;5.758;2022-10-31T12:17:35;18.40;99.90
43858;DHT22;29507;51.284;5.758;2022-10-31T12:20:24;18.30;99.90
43858;DHT22;29507;51.284;5.758;2022-10-31T12:25:43;18.10;99.90
43858;DHT22;29507;51.284;5.758;2022-10-31T12:34:33;17.80;99.90
43858;DHT22;29507;51.284;5.758;2022-10-31T12:44:12;17.70;99.90
43858;DHT22;29507;51.284;5.758;2022-10-31T12:49:29;17.60;99.90
43858;DHT22;29507;51.284;5.758;2022-10-31T12:54:43;17.60;99.90
43858;DHT22;29507;51.284;5.758;2022-10-31T12:57:22;17.70;99.90
43858;DHT22;29507;51.284;5.758;2022-10-31T13:00:10;17.80;99.90
43858;DHT22;29507;51.284;5.758;2022-10-31T13:05:37;17.80;99.90
43858;DHT22;29507;51.284;5.758;2022-10-31T13:08:24;17.80;99.90
43858;DHT22;29507;51.284;5.758;2022-10-31T13:11:07;17.80;99.90
43858;DHT22;29507;51.284;5.758;2022-10-31T13:14:04;17.90;99.90
43858;DHT22;29507;51.284;5.758;2022-10-31T13:16:40;18.00;99.90
43858;DHT22;29507;51.284;5.758;2022-10-31T13:19:25;18.20;99.90
43858;DHT22;29507;51.284;5.758;2022-10-31T13:22:07;18.50;99.90
43858;DHT22;29507;51.284;5.758;2022-10-31T13:24:44;18.60;99.90
43858;DHT22;29507;51.284;5.758;2022-10-31T13:27:54;18.70;99.90
43858;DHT22;29507;51.284;5.758;2022-10-31T13:30:20;18.70;99.90
43858;DHT22;29507;51.284;5.758;2022-10-31T13:32:58;18.70;99.90
43858;DHT22;29507;51.284;5.758;2022-10-31T13:35:41;18.80;99.90
43858;DHT22;29507;51.284;5.758;2022-10-31T13:38:35;18.90;99.90
43858;DHT22;29507;51.284;5.758;2022-10-31T13:41:33;19.30;99.90
43858;DHT22;29507;51.284;5.758;2022-10-31T13:46:45;21.20;99.90
43858;DHT22;29507;51.284;5.758;2022-10-31T13:52:15;22.50;99.40
43858;DHT22;29507;51.284;5.758;2022-10-31T13:57:15;22.20;98.80
43858;DHT22;29507;51.284;5.758;2022-10-31T13:59:53;21.90;98.70
43858;DHT22;29507;51.284;5.758;2022-10-31T14:02:31;21.40;99.90
43858;DHT22;29507;51.284;5.758;2022-10-31T14:07:28;21.40;99.90
43858;DHT22;29507;51.284;5.758;2022-10-31T14:10:16;21.60;99.90
43858;DHT22;29507;51.284;5.758;2022-10-31T14:12:46;21.90;99.30
43858;DHT22;29507;51.284;5.758;2022-10-31T14:17:54;22.10;97.20
43858;DHT22;29507;51.284;5.758;2022-10-31T14:20:43;22.10;96.60
43858;DHT22;29507;51.284;5.758;2022-10-31T14:28:41;22.10;95.70
43858;DHT22;29507;51.284;5.758;2022-10-31T14:31:34;22.00;96.50
43858;DHT22;29507;51.284;5.758;2022-10-31T14:44:54;19.40;99.90
43858;DHT22;29507;51.284;5.758;2022-10-31T14:47:41;19.10;99.90
43858;DHT22;29507;51.284;5.758;2022-10-31T14:53:01;20.30;99.90
43858;DHT22;29507;51.284;5.758;2022-10-31T14:55:27;20.20;99.90
43858;DHT22;29507;51.284;5.758;2022-10-31T14:58:02;19.80;99.90
43858;DHT22;29507;51.284;5.758;2022-10-31T15:00:29;19.20;99.90
43858;DHT22;29507;51.284;5.758;2022-10-31T15:03:53;19.00;99.90
43858;DHT22;29507;51.284;5.758;2022-10-31T15:06:10;19.10;99.90
43858;DHT22;29507;51.284;5.758;2022-10-31T15:08:44;19.60;99.90
43858;DHT22;29507;51.284;5.758;2022-10-31T15:11:24;20.10;99.90
43858;DHT22;29507;51.284;5.758;2022-10-31T15:13:52;20.40;99.90
43858;DHT22;29507;51.284;5.758;2022-10-31T15:16:21;20.60;99.90
43858;DHT22;29507;51.284;5.758;2022-10-31T15:18:59;20.60;99.90
43858;DHT22;29507;51.284;5.758;2022-10-31T15:21:27;20.60;99.90
43858;DHT22;29507;51.284;5.758;2022-10-31T15:23:58;20.50;99.90
43858;DHT22;29507;51.284;5.758;2022-10-31T15:26:32;20.30;99.90
43858;DHT22;29507;51.284;5.758;2022-10-31T15:29:10;19.80;99.90
43858;DHT22;29507;51.284;5.758;2022-10-31T15:31:36;19.30;99.90
43858;DHT22;29507;51.284;5.758;2022-10-31T15:34:42;18.80;99.90
43858;DHT22;29507;51.284;5.758;2022-10-31T15:37:18;18.30;99.90
43858;DHT22;29507;51.284;5.758;2022-10-31T15:39:46;18.00;99.90
43858;DHT22;29507;51.284;5.758;2022-10-31T15:44:47;17.50;99.90
43858;DHT22;29507;51.284;5.758;2022-10-31T15:47:19;17.30;99.90
43858;DHT22;29507;51.284;5.758;2022-10-31T15:49:55;17.10;99.90
43858;DHT22;29507;51.284;5.758;2022-10-31T15:52:43;16.90;99.90
43858;DHT22;29507;51.284;5.758;2022-10-31T15:57:40;16.50;99.90
43858;DHT22;29507;51.284;5.758;2022-10-31T16:00:28;16.40;99.90
43858;DHT22;29507;51.284;5.758;2022-10-31T16:05:43;16.10;99.90
43858;DHT22;29507;51.284;5.758;2022-10-31T16:13:27;15.80;99.90
43858;DHT22;29507;51.284;5.758;2022-10-31T16:15:56;15.70;99.90
43858;DHT22;29507;51.284;5.758;2022-10-31T16:18:23;15.60;99.90
43858;DHT22;29507;51.284;5.758;2022-10-31T16:20:51;15.60;99.90
43858;DHT22;29507;51.284;5.758;2022-10-31T16:23:19;15.60;99.90
43858;DHT22;29507;51.284;5.758;2022-10-31T16:25:46;15.60;99.90
43858;DHT22;29507;51.284;5.758;2022-10-31T16:28:25;15.60;99.90
43858;DHT22;29507;51.284;5.758;2022-10-31T16:30:55;15.50;99.90
43858;DHT22;29507;51.284;5.758;2022-10-31T16:35:49;15.50;99.90
43858;DHT22;29507;51.284;5.758;2022-10-31T16:38:15;15.50;99.90
43858;DHT22;29507;51.284;5.758;2022-10-31T16:40:41;15.40;99.90
43858;DHT22;29507;51.284;5.758;2022-10-31T16:43:12;15.40;99.90
43858;DHT22;29507;51.284;5.758;2022-10-31T16:45:45;15.30;99.90
43858;DHT22;29507;51.284;5.758;2022-10-31T16:48:19;15.30;99.90
43858;DHT22;29507;51.284;5.758;2022-10-31T16:50:47;15.40;99.90
43858;DHT22;29507;51.284;5.758;2022-10-31T16:53:15;15.30;99.90
43858;DHT22;29507;51.284;5.758;2022-10-31T16:55:46;15.30;99.90
43858;DHT22;29507;51.284;5.758;2022-10-31T16:58:21;15.30;99.90
43858;DHT22;29507;51.284;5.758;2022-10-31T17:00:48;15.30;99.90
43858;DHT22;29507;51.284;5.758;2022-10-31T17:03:14;15.30;99.90
43858;DHT22;29507;51.284;5.758;2022-10-31T17:05:39;15.40;99.90
43858;DHT22;29507;51.284;5.758;2022-10-31T17:08:05;15.30;99.90
43858;DHT22;29507;51.284;5.758;2022-10-31T17:10:31;15.30;99.90
43858;DHT22;29507;51.284;5.758;2022-10-31T17:12:57;15.20;99.90
43858;DHT22;29507;51.284;5.758;2022-10-31T17:15:28;15.20;99.90
43858;DHT22;29507;51.284;5.758;2022-10-31T17:17:56;15.10;99.90
43858;DHT22;29507;51.284;5.758;2022-10-31T17:20:27;15.00;99.90
43858;DHT22;29507;51.284;5.758;2022-10-31T17:22:54;14.90;99.90
43858;DHT22;29507;51.284;5.758;2022-10-31T17:25:25;14.80;99.90
43858;DHT22;29507;51.284;5.758;2022-10-31T17:27:51;14.70;99.90
43858;DHT22;29507;51.284;5.758;2022-10-31T17:30:18;14.60;99.90
43858;DHT22;29507;51.284;5.758;2022-10-31T17:32:45;14.60;99.90
43858;DHT22;29507;51.284;5.758;2022-10-31T17:35:12;14.50;99.90
43858;DHT22;29507;51.284;5.758;2022-10-31T17:37:39;14.40;99.90
43858;DHT22;29507;51.284;5.758;2022-10-31T17:40:17;14.40;99.90
43858;DHT22;29507;51.284;5.758;2022-10-31T17:42:50;14.30;99.90
43858;DHT22;29507;51.284;5.758;2022-10-31T17:45:16;14.30;99.90
43858;DHT22;29507;51.284;5.758;2022-10-31T17:47:42;14.30;99.90
43858;DHT22;29507;51.284;5.758;2022-10-31T17:50:08;14.20;99.90
43858;DHT22;29507;51.284;5.758;2022-10-31T17:52:33;14.20;99.90
43858;DHT22;29507;51.284;5.758;2022-10-31T17:54:59;14.10;99.90
43858;DHT22;29507;51.284;5.758;2022-10-31T17:57:25;14.10;99.90
43858;DHT22;29507;51.284;5.758;2022-10-31T17:59:50;14.10;99.90
43858;DHT22;29507;51.284;5.758;2022-10-31T18:02:16;14.10;99.90
43858;DHT22;29507;51.284;5.758;2022-10-31T18:04:41;14.00;99.90
43858;DHT22;29507;51.284;5.758;2022-10-31T18:07:07;14.00;99.90
43858;DHT22;29507;51.284;5.758;2022-10-31T18:09:33;14.00;99.90
43858;DHT22;29507;51.284;5.758;2022-10-31T18:11:59;13.90;99.90
43858;DHT22;29507;51.284;5.758;2022-10-31T18:14:24;13.90;99.90
43858;DHT22;29507;51.284;5.758;2022-10-31T18:16:50;13.90;99.90
43858;DHT22;29507;51.284;5.758;2022-10-31T18:19:16;13.90;99.90
43858;DHT22;29507;51.284;5.758;2022-10-31T18:21:43;13.90;99.90
43858;DHT22;29507;51.284;5.758;2022-10-31T18:24:09;13.90;99.90